sensor_id;sensor_type;location;lat;lon;timestamp;pressure;altitude;pressure_sealevel;temperature;humidity
48015;BME280;33780;51.034;7.120;2023-05-21T00:02:23;100831.63;;;16.32;60.14
48015;BME280;33780;51.034;7.120;2023-05-21T00:04:48;100818.31;;;16.31;60.25
48015;BME280;33780;51.034;7.120;2023-05-21T00:07:15;100821.34;;;16.28;60.32
48015;BME280;33780;51.034;7.120;2023-05-21T00:09:40;100811.72;;;16.25;60.34
48015;BME280;33780;51.034;7.120;2023-05-21T00:12:07;100818.31;;;16.23;60.66
48015;BME280;33780;51.034;7.120;2023-05-21T00:14:33;100811.56;;;16.19;60.27
48015;BME280;33780;51.034;7.120;2023-05-21T00:17:01;100812.72;;;16.16;60.62
48015;BME280;33780;51.034;7.120;2023-05-21T00:19:26;100812.88;;;16.15;60.50
48015;BME280;33780;51.034;7.120;2023-05-21T00:21:52;100816.75;;;16.12;60.52
48015;BME280;33780;51.034;7.120;2023-05-21T00:24:17;100810.66;;;16.10;60.80
48015;BME280;33780;51.034;7.120;2023-05-21T00:26:43;100804.75;;;16.07;60.76
48015;BME280;33780;51.034;7.120;2023-05-21T00:29:08;100797.00;;;16.04;60.73
48015;BME280;33780;51.034;7.120;2023-05-21T00:31:34;100797.34;;;16.00;60.62
48015;BME280;33780;51.034;7.120;2023-05-21T00:33:59;100794.81;;;15.99;60.84
48015;BME280;33780;51.034;7.120;2023-05-21T00:36:24;100796.97;;;15.95;61.04
48015;BME280;33780;51.034;7.120;2023-05-21T00:38:50;100786.50;;;15.92;60.94
48015;BME280;33780;51.034;7.120;2023-05-21T00:41:17;100794.94;;;15.89;61.30
48015;BME280;33780;51.034;7.120;2023-05-21T00:43:42;100784.47;;;15.86;61.31
48015;BME280;33780;51.034;7.120;2023-05-21T00:46:19;100797.28;;;15.84;61.40
48015;BME280;33780;51.034;7.120;2023-05-21T00:48:45;100788.50;;;15.82;61.63
48015;BME280;33780;51.034;7.120;2023-05-21T00:51:12;100782.44;;;15.80;61.62
48015;BME280;33780;51.034;7.120;2023-05-21T00:53:39;100782.56;;;15.79;61.81
48015;BME280;33780;51.034;7.120;2023-05-21T00:56:05;100775.50;;;15.78;61.76
48015;BME280;33780;51.034;7.120;2023-05-21T00:58:30;100786.63;;;15.75;61.85
48015;BME280;33780;51.034;7.120;2023-05-21T01:00:58;100776.00;;;15.73;61.75
48015;BME280;33780;51.034;7.120;2023-05-21T01:03:31;100784.09;;;15.73;61.49
48015;BME280;33780;51.034;7.120;2023-05-21T01:06:04;100771.78;;;15.70;61.58
48015;BME280;33780;51.034;7.120;2023-05-21T01:08:29;100776.47;;;15.68;61.80
48015;BME280;33780;51.034;7.120;2023-05-21T01:10:55;100779.34;;;15.67;61.74
48015;BME280;33780;51.034;7.120;2023-05-21T01:13:21;100781.38;;;15.65;61.76
48015;BME280;33780;51.034;7.120;2023-05-21T01:15:48;100777.81;;;15.64;61.94
48015;BME280;33780;51.034;7.120;2023-05-21T01:18:14;100780.81;;;15.61;62.01
48015;BME280;33780;51.034;7.120;2023-05-21T01:20:41;100777.44;;;15.59;62.23
48015;BME280;33780;51.034;7.120;2023-05-21T01:23:07;100782.13;;;15.57;62.17
48015;BME280;33780;51.034;7.120;2023-05-21T01:25:33;100778.75;;;15.55;62.23
48015;BME280;33780;51.034;7.120;2023-05-21T01:27:59;100769.13;;;15.53;62.19
48015;BME280;33780;51.034;7.120;2023-05-21T01:30:25;100772.84;;;15.52;61.97
48015;BME280;33780;51.034;7.120;2023-05-21T01:32:55;100774.03;;;15.49;62.13
48015;BME280;33780;51.034;7.120;2023-05-21T01:35:25;100772.50;;;15.47;62.55
48015;BME280;33780;51.034;7.120;2023-05-21T01:38:14;100775.50;;;15.43;62.62
48015;BME280;33780;51.034;7.120;2023-05-21T01:40:50;100774.81;;;15.41;62.65
48015;BME280;33780;51.034;7.120;2023-05-21T01:43:18;100770.44;;;15.40;62.19
48015;BME280;33780;51.034;7.120;2023-05-21T01:45:44;100765.19;;;15.39;62.55
48015;BME280;33780;51.034;7.120;2023-05-21T01:48:11;100758.13;;;15.38;62.63
48015;BME280;33780;51.034;7.120;2023-05-21T01:50:39;100761.97;;;15.35;62.47
48015;BME280;33780;51.034;7.120;2023-05-21T01:53:05;100761.13;;;15.35;62.39
48015;BME280;33780;51.034;7.120;2023-05-21T01:55:31;100761.47;;;15.32;62.55
48015;BME280;33780;51.034;7.120;2023-05-21T01:57:57;100762.47;;;15.31;62.58
48015;BME280;33780;51.034;7.120;2023-05-21T02:00:25;100768.19;;;15.28;62.60
48015;BME280;33780;51.034;7.120;2023-05-21T02:02:56;100770.19;;;15.26;62.49
48015;BME280;33780;51.034;7.120;2023-05-21T02:05:22;100766.81;;;15.24;62.44
48015;BME280;33780;51.034;7.120;2023-05-21T02:07:49;100760.91;;;15.20;62.85
48015;BME280;33780;51.034;7.120;2023-05-21T02:10:16;100766.28;;;15.20;62.83
48015;BME280;33780;51.034;7.120;2023-05-21T02:12:41;100764.75;;;15.18;62.84
48015;BME280;33780;51.034;7.120;2023-05-21T02:15:07;100754.31;;;15.15;62.77
48015;BME280;33780;51.034;7.120;2023-05-21T02:17:33;100766.09;;;15.14;62.91
48015;BME280;33780;51.034;7.120;2023-05-21T02:20:00;100770.81;;;15.11;63.34
48015;BME280;33780;51.034;7.120;2023-05-21T02:22:35;100771.81;;;15.10;63.08
48015;BME280;33780;51.034;7.120;2023-05-21T02:25:01;100768.28;;;15.10;63.07
48015;BME280;33780;51.034;7.120;2023-05-21T02:27:26;100767.56;;;15.08;63.24
48015;BME280;33780;51.034;7.120;2023-05-21T02:29:53;100764.19;;;15.06;63.28
48015;BME280;33780;51.034;7.120;2023-05-21T02:32:18;100767.88;;;15.05;63.47
48015;BME280;33780;51.034;7.120;2023-05-21T02:34:43;100767.19;;;15.03;63.37
48015;BME280;33780;51.034;7.120;2023-05-21T02:37:11;100763.81;;;15.01;63.25
48015;BME280;33780;51.034;7.120;2023-05-21T02:39:36;100761.28;;;14.99;63.77
48015;BME280;33780;51.034;7.120;2023-05-21T02:42:01;100762.47;;;14.97;63.63
48015;BME280;33780;51.034;7.120;2023-05-21T02:44:27;100762.63;;;14.95;63.68
48015;BME280;33780;51.034;7.120;2023-05-21T02:46:52;100759.25;;;14.93;63.74
48015;BME280;33780;51.034;7.120;2023-05-21T02:49:17;100757.56;;;14.92;63.56
48015;BME280;33780;51.034;7.120;2023-05-21T02:51:43;100748.78;;;14.90;63.92
48015;BME280;33780;51.034;7.120;2023-05-21T02:54:08;100755.31;;;14.88;64.19
48015;BME280;33780;51.034;7.120;2023-05-21T02:56:33;100759.16;;;14.85;63.60
48015;BME280;33780;51.034;7.120;2023-05-21T02:58:58;100748.56;;;14.84;64.26
48015;BME280;33780;51.034;7.120;2023-05-21T03:01:26;100746.88;;;14.82;64.47
48015;BME280;33780;51.034;7.120;2023-05-21T03:03:52;100744.34;;;14.81;64.21
48015;BME280;33780;51.034;7.120;2023-05-21T03:06:17;100747.88;;;14.81;64.39
48015;BME280;33780;51.034;7.120;2023-05-21T03:08:45;100741.63;;;14.81;64.18
48015;BME280;33780;51.034;7.120;2023-05-21T03:11:10;100739.94;;;14.80;64.18
48015;BME280;33780;51.034;7.120;2023-05-21T03:13:35;100737.25;;;14.80;64.33
48015;BME280;33780;51.034;7.120;2023-05-21T03:16:04;100741.97;;;14.78;64.50
48015;BME280;33780;51.034;7.120;2023-05-21T03:18:29;100738.41;;;14.77;64.35
48015;BME280;33780;51.034;7.120;2023-05-21T03:20:55;100730.34;;;14.77;64.80
48015;BME280;33780;51.034;7.120;2023-05-21T03:23:23;100723.41;;;14.75;64.40
48015;BME280;33780;51.034;7.120;2023-05-21T03:25:51;100726.28;;;14.73;64.51
48015;BME280;33780;51.034;7.120;2023-05-21T03:28:17;100726.28;;;14.73;64.69
48015;BME280;33780;51.034;7.120;2023-05-21T03:30:42;100729.81;;;14.74;64.75
48015;BME280;33780;51.034;7.120;2023-05-21T03:33:12;100728.13;;;14.73;64.62
48015;BME280;33780;51.034;7.120;2023-05-21T03:35:38;100729.97;;;14.72;64.66
48015;BME280;33780;51.034;7.120;2023-05-21T03:38:03;100738.19;;;14.71;64.80
48015;BME280;33780;51.034;7.120;2023-05-21T03:40:29;100735.50;;;14.71;64.91
48015;BME280;33780;51.034;7.120;2023-05-21T03:42:54;100733.81;;;14.70;64.93
48015;BME280;33780;51.034;7.120;2023-05-21T03:45:20;100732.13;;;14.69;64.96
48015;BME280;33780;51.034;7.120;2023-05-21T03:47:45;100730.44;;;14.68;65.20
48015;BME280;33780;51.034;7.120;2023-05-21T03:50:10;100731.28;;;14.68;65.09
48015;BME280;33780;51.034;7.120;2023-05-21T03:52:36;100733.13;;;14.68;65.06
48015;BME280;33780;51.034;7.120;2023-05-21T03:55:01;100737.66;;;14.67;65.11
48015;BME280;33780;51.034;7.120;2023-05-21T03:57:27;100732.28;;;14.67;64.98
48015;BME280;33780;51.034;7.120;2023-05-21T03:59:52;100740.34;;;14.67;65.59
48015;BME280;33780;51.034;7.120;2023-05-21T04:02:17;100736.81;;;14.67;65.51
48015;BME280;33780;51.034;7.120;2023-05-21T04:04:43;100725.19;;;14.66;65.33
48015;BME280;33780;51.034;7.120;2023-05-21T04:07:09;100723.66;;;14.64;65.30
48015;BME280;33780;51.034;7.120;2023-05-21T04:09:39;100730.91;;;14.63;65.54
48015;BME280;33780;51.034;7.120;2023-05-21T04:12:05;100734.44;;;14.64;65.56
48015;BME280;33780;51.034;7.120;2023-05-21T04:14:30;100722.81;;;14.63;65.49
48015;BME280;33780;51.034;7.120;2023-05-21T04:16:55;100724.69;;;14.63;65.75
48015;BME280;33780;51.034;7.120;2023-05-21T04:19:20;100720.13;;;14.63;65.57
48015;BME280;33780;51.034;7.120;2023-05-21T04:21:46;100728.91;;;14.65;65.28
48015;BME280;33780;51.034;7.120;2023-05-21T04:24:11;100724.50;;;14.64;65.59
48015;BME280;33780;51.034;7.120;2023-05-21T04:26:37;100719.13;;;14.64;65.81
48015;BME280;33780;51.034;7.120;2023-05-21T04:29:06;100727.06;;;14.66;65.41
48015;BME280;33780;51.034;7.120;2023-05-21T04:31:31;100726.03;;;14.67;65.41
48015;BME280;33780;51.034;7.120;2023-05-21T04:33:57;100723.19;;;14.68;65.82
48015;BME280;33780;51.034;7.120;2023-05-21T04:36:23;100724.19;;;14.67;65.81
48015;BME280;33780;51.034;7.120;2023-05-21T04:38:49;100731.28;;;14.68;65.86
48015;BME280;33780;51.034;7.120;2023-05-21T04:41:14;100731.28;;;14.68;65.89
48015;BME280;33780;51.034;7.120;2023-05-21T04:43:39;100729.41;;;14.69;66.03
48015;BME280;33780;51.034;7.120;2023-05-21T04:46:08;100730.25;;;14.69;65.89
48015;BME280;33780;51.034;7.120;2023-05-21T04:48:33;100725.72;;;14.70;66.05
48015;BME280;33780;51.034;7.120;2023-05-21T04:50:59;100731.94;;;14.70;65.99
48015;BME280;33780;51.034;7.120;2023-05-21T04:53:24;100731.78;;;14.72;65.89
48015;BME280;33780;51.034;7.120;2023-05-21T04:55:50;100732.66;;;14.72;66.21
48015;BME280;33780;51.034;7.120;2023-05-21T04:58:16;100733.50;;;14.73;66.08
48015;BME280;33780;51.034;7.120;2023-05-21T05:00:43;100723.41;;;14.75;66.06
48015;BME280;33780;51.034;7.120;2023-05-21T05:03:11;100735.72;;;14.77;66.17
48015;BME280;33780;51.034;7.120;2023-05-21T05:05:39;100738.25;;;14.79;66.01
48015;BME280;33780;51.034;7.120;2023-05-21T05:08:04;100739.78;;;14.81;66.14
48015;BME280;33780;51.034;7.120;2023-05-21T05:10:30;100736.94;;;14.83;66.26
48015;BME280;33780;51.034;7.120;2023-05-21T05:12:56;100734.91;;;14.85;66.18
48015;BME280;33780;51.034;7.120;2023-05-21T05:15:21;100743.69;;;14.87;66.09
48015;BME280;33780;51.034;7.120;2023-05-21T05:17:46;100739.81;;;14.90;66.30
48015;BME280;33780;51.034;7.120;2023-05-21T05:20:15;100735.16;;;14.92;66.65
48015;BME280;33780;51.034;7.120;2023-05-21T05:22:40;100734.16;;;14.93;66.56
48015;BME280;33780;51.034;7.120;2023-05-21T05:25:06;100740.91;;;14.97;66.73
48015;BME280;33780;51.034;7.120;2023-05-21T05:27:31;100728.09;;;14.99;66.73
48015;BME280;33780;51.034;7.120;2023-05-21T05:29:57;100726.94;;;15.01;66.64
48015;BME280;33780;51.034;7.120;2023-05-21T05:32:22;100726.59;;;15.04;66.98
48015;BME280;33780;51.034;7.120;2023-05-21T05:34:47;100726.28;;;15.07;66.91
48015;BME280;33780;51.034;7.120;2023-05-21T05:37:13;100733.53;;;15.07;67.23
48015;BME280;33780;51.034;7.120;2023-05-21T05:39:38;100726.28;;;15.07;66.83
48015;BME280;33780;51.034;7.120;2023-05-21T05:42:06;100734.06;;;15.10;66.87
48015;BME280;33780;51.034;7.120;2023-05-21T05:44:31;100726.50;;;15.14;66.80
48015;BME280;33780;51.034;7.120;2023-05-21T05:46:56;100727.19;;;15.16;67.15
48015;BME280;33780;51.034;7.120;2023-05-21T05:49:22;100726.00;;;15.19;67.21
48015;BME280;33780;51.034;7.120;2023-05-21T05:51:47;100721.28;;;15.21;66.69
48015;BME280;33780;51.034;7.120;2023-05-21T05:54:15;100721.81;;;15.24;66.93
48015;BME280;33780;51.034;7.120;2023-05-21T05:56:43;100718.81;;;15.27;67.12
48015;BME280;33780;51.034;7.120;2023-05-21T06:01:38;100718.84;;;15.35;66.88
48015;BME280;33780;51.034;7.120;2023-05-21T06:04:04;100716.66;;;15.39;66.92
48015;BME280;33780;51.034;7.120;2023-05-21T06:06:29;100718.84;;;15.43;66.71
48015;BME280;33780;51.034;7.120;2023-05-21T06:08:55;100711.31;;;15.47;66.79
48015;BME280;33780;51.034;7.120;2023-05-21T06:11:20;100716.19;;;15.52;66.83
48015;BME280;33780;51.034;7.120;2023-05-21T06:13:46;100714.69;;;15.57;66.98
48015;BME280;33780;51.034;7.120;2023-05-21T06:16:12;100710.53;;;15.63;66.84
48015;BME280;33780;51.034;7.120;2023-05-21T06:18:37;100712.75;;;15.67;67.11
48015;BME280;33780;51.034;7.120;2023-05-21T06:21:03;100716.63;;;15.73;67.19
48015;BME280;33780;51.034;7.120;2023-05-21T06:23:28;100717.81;;;15.79;66.93
48015;BME280;33780;51.034;7.120;2023-05-21T06:25:56;100713.78;;;15.83;67.13
48015;BME280;33780;51.034;7.120;2023-05-21T06:28:21;100710.59;;;15.87;67.31
48015;BME280;33780;51.034;7.120;2023-05-21T06:30:46;100711.94;;;15.91;67.22
48015;BME280;33780;51.034;7.120;2023-05-21T06:33:11;100709.56;;;15.96;66.97
48015;BME280;33780;51.034;7.120;2023-05-21T06:35:37;100710.78;;;16.02;67.10
48015;BME280;33780;51.034;7.120;2023-05-21T06:38:04;100711.97;;;16.08;66.97
48015;BME280;33780;51.034;7.120;2023-05-21T06:40:29;100710.44;;;16.13;67.17
48015;BME280;33780;51.034;7.120;2023-05-21T06:42:54;100706.06;;;16.20;67.16
48015;BME280;33780;51.034;7.120;2023-05-21T06:45:20;100711.63;;;16.27;67.20
48015;BME280;33780;51.034;7.120;2023-05-21T06:47:46;100704.69;;;16.32;66.96
48015;BME280;33780;51.034;7.120;2023-05-21T06:50:11;100702.34;;;16.38;66.89
48015;BME280;33780;51.034;7.120;2023-05-21T06:52:36;100703.53;;;16.43;67.58
48015;BME280;33780;51.034;7.120;2023-05-21T06:55:01;100707.75;;;16.46;67.22
48015;BME280;33780;51.034;7.120;2023-05-21T06:57:27;100711.78;;;16.50;66.84
48015;BME280;33780;51.034;7.120;2023-05-21T06:59:52;100710.09;;;16.57;66.50
48015;BME280;33780;51.034;7.120;2023-05-21T07:02:17;100710.91;;;16.66;66.78
48015;BME280;33780;51.034;7.120;2023-05-21T07:04:43;100725.31;;;16.74;66.38
48015;BME280;33780;51.034;7.120;2023-05-21T07:07:08;100716.50;;;16.80;66.55
48015;BME280;33780;51.034;7.120;2023-05-21T07:09:34;100712.09;;;16.87;66.64
48015;BME280;33780;51.034;7.120;2023-05-21T07:11:59;100715.97;;;16.93;66.52
48015;BME280;33780;51.034;7.120;2023-05-21T07:14:26;100723.56;;;16.98;66.13
48015;BME280;33780;51.034;7.120;2023-05-21T07:16:51;100720.16;;;17.04;65.98
48015;BME280;33780;51.034;7.120;2023-05-21T07:19:16;100728.59;;;17.09;66.28
48015;BME280;33780;51.034;7.120;2023-05-21T07:21:42;100720.81;;;17.14;66.33
48015;BME280;33780;51.034;7.120;2023-05-21T07:24:07;100717.56;;;17.18;65.90
48015;BME280;33780;51.034;7.120;2023-05-21T07:26:33;100712.81;;;17.20;66.48
48015;BME280;33780;51.034;7.120;2023-05-21T07:28:58;100714.34;;;17.23;66.25
48015;BME280;33780;51.034;7.120;2023-05-21T07:31:23;100713.00;;;17.27;65.92
48015;BME280;33780;51.034;7.120;2023-05-21T07:33:49;100716.00;;;17.32;65.91
48015;BME280;33780;51.034;7.120;2023-05-21T07:36:14;100712.41;;;17.40;65.44
48015;BME280;33780;51.034;7.120;2023-05-21T07:38:40;100714.25;;;17.47;65.59
48015;BME280;33780;51.034;7.120;2023-05-21T07:41:05;100721.47;;;17.55;65.47
48015;BME280;33780;51.034;7.120;2023-05-21T07:43:33;100721.63;;;17.62;65.21
48015;BME280;33780;51.034;7.120;2023-05-21T07:45:58;100713.81;;;17.67;64.83
48015;BME280;33780;51.034;7.120;2023-05-21T07:48:23;100716.66;;;17.73;64.81
48015;BME280;33780;51.034;7.120;2023-05-21T07:50:49;100715.97;;;17.79;65.11
48015;BME280;33780;51.034;7.120;2023-05-21T07:53:16;100718.13;;;17.84;64.52
48015;BME280;33780;51.034;7.120;2023-05-21T07:55:41;100720.13;;;17.90;64.70
48015;BME280;33780;51.034;7.120;2023-05-21T07:58:16;100719.56;;;17.95;64.80
48015;BME280;33780;51.034;7.120;2023-05-21T08:00:43;100713.47;;;18.01;64.63
48015;BME280;33780;51.034;7.120;2023-05-21T08:03:09;100711.03;;;18.06;64.50
48015;BME280;33780;51.034;7.120;2023-05-21T08:05:36;100706.94;;;18.10;64.39
48015;BME280;33780;51.034;7.120;2023-05-21T08:08:01;100708.28;;;18.14;64.25
48015;BME280;33780;51.034;7.120;2023-05-21T08:10:26;100710.63;;;18.17;63.86
48015;BME280;33780;51.034;7.120;2023-05-21T08:12:52;100704.66;;;18.22;63.92
48015;BME280;33780;51.034;7.120;2023-05-21T08:15:17;100710.72;;;18.24;64.33
48015;BME280;33780;51.034;7.120;2023-05-21T08:17:42;100702.25;;;18.27;64.22
48015;BME280;33780;51.034;7.120;2023-05-21T08:20:08;100716.63;;;18.27;64.22
48015;BME280;33780;51.034;7.120;2023-05-21T08:22:34;100716.44;;;18.29;64.42
48015;BME280;33780;51.034;7.120;2023-05-21T08:24:59;100719.81;;;18.31;64.31
48015;BME280;33780;51.034;7.120;2023-05-21T08:27:25;100718.81;;;18.32;64.51
48015;BME280;33780;51.034;7.120;2023-05-21T08:29:50;100723.22;;;18.33;64.45
48015;BME280;33780;51.034;7.120;2023-05-21T08:32:16;100722.19;;;18.34;64.28
48015;BME280;33780;51.034;7.120;2023-05-21T08:34:41;100718.81;;;18.32;64.37
48015;BME280;33780;51.034;7.120;2023-05-21T08:37:07;100707.28;;;18.30;64.24
48015;BME280;33780;51.034;7.120;2023-05-21T08:39:32;100707.13;;;18.31;64.61
48015;BME280;33780;51.034;7.120;2023-05-21T08:42:08;100712.38;;;18.33;64.17
48015;BME280;33780;51.034;7.120;2023-05-21T08:44:36;100710.31;;;18.35;64.20
48015;BME280;33780;51.034;7.120;2023-05-21T08:47:04;100710.97;;;18.37;64.24
48015;BME280;33780;51.034;7.120;2023-05-21T08:49:33;100712.66;;;18.38;64.22
48015;BME280;33780;51.034;7.120;2023-05-21T08:51:59;100701.81;;;18.38;64.27
48015;BME280;33780;51.034;7.120;2023-05-21T08:54:24;100698.72;;;18.41;64.07
48015;BME280;33780;51.034;7.120;2023-05-21T08:56:51;100703.78;;;18.44;64.08
48015;BME280;33780;51.034;7.120;2023-05-21T08:59:17;100699.00;;;18.46;64.46
48015;BME280;33780;51.034;7.120;2023-05-21T09:01:44;100696.81;;;18.50;64.60
48015;BME280;33780;51.034;7.120;2023-05-21T09:04:11;100689.16;;;18.53;64.34
48015;BME280;33780;51.034;7.120;2023-05-21T09:06:39;100684.19;;;18.57;64.25
48015;BME280;33780;51.034;7.120;2023-05-21T09:09:15;100692.13;;;18.58;64.56
48015;BME280;33780;51.034;7.120;2023-05-21T09:11:41;100679.41;;;18.59;64.80
48015;BME280;33780;51.034;7.120;2023-05-21T09:14:08;100691.59;;;18.63;64.31
48015;BME280;33780;51.034;7.120;2023-05-21T09:16:35;100694.78;;;18.66;65.05
48015;BME280;33780;51.034;7.120;2023-05-21T09:19:00;100691.53;;;18.71;65.58
48015;BME280;33780;51.034;7.120;2023-05-21T09:21:28;100682.00;;;18.75;64.31
48015;BME280;33780;51.034;7.120;2023-05-21T09:23:54;100680.22;;;18.82;64.55
48015;BME280;33780;51.034;7.120;2023-05-21T09:26:21;100683.88;;;18.89;64.38
48015;BME280;33780;51.034;7.120;2023-05-21T09:28:47;100676.66;;;18.96;64.68
48015;BME280;33780;51.034;7.120;2023-05-21T09:31:12;100679.31;;;19.05;64.33
48015;BME280;33780;51.034;7.120;2023-05-21T09:33:44;100680.03;;;19.13;64.53
48015;BME280;33780;51.034;7.120;2023-05-21T09:36:10;100682.66;;;19.21;64.61
48015;BME280;33780;51.034;7.120;2023-05-21T09:38:35;100681.50;;;19.30;64.91
48015;BME280;33780;51.034;7.120;2023-05-21T09:41:03;100681.59;;;19.37;64.57
48015;BME280;33780;51.034;7.120;2023-05-21T09:43:29;100680.66;;;19.45;64.79
48015;BME280;33780;51.034;7.120;2023-05-21T09:45:56;100685.13;;;19.52;64.33
48015;BME280;33780;51.034;7.120;2023-05-21T09:48:35;100681.50;;;19.60;64.26
48015;BME280;33780;51.034;7.120;2023-05-21T09:53:32;100686.78;;;19.68;63.83
48015;BME280;33780;51.034;7.120;2023-05-21T09:55:58;100680.59;;;19.74;63.88
48015;BME280;33780;51.034;7.120;2023-05-21T09:58:24;100676.28;;;19.80;63.21
48015;BME280;33780;51.034;7.120;2023-05-21T10:00:51;100671.28;;;19.83;62.38
48015;BME280;33780;51.034;7.120;2023-05-21T10:03:16;100665.06;;;19.89;62.44
48015;BME280;33780;51.034;7.120;2023-05-21T10:05:43;100670.59;;;19.96;62.36
48015;BME280;33780;51.034;7.120;2023-05-21T10:08:10;100659.78;;;20.03;62.58
48015;BME280;33780;51.034;7.120;2023-05-21T10:10:37;100657.78;;;20.11;62.96
48015;BME280;33780;51.034;7.120;2023-05-21T10:13:04;100651.81;;;20.22;63.00
48015;BME280;33780;51.034;7.120;2023-05-21T10:15:41;100652.97;;;20.35;62.50
48015;BME280;33780;51.034;7.120;2023-05-21T10:18:09;100654.72;;;20.42;62.11
48015;BME280;33780;51.034;7.120;2023-05-21T10:20:35;100638.84;;;20.46;61.21
48015;BME280;33780;51.034;7.120;2023-05-21T10:23:01;100634.72;;;20.50;61.23
48015;BME280;33780;51.034;7.120;2023-05-21T10:25:29;100645.63;;;20.57;61.34
48015;BME280;33780;51.034;7.120;2023-05-21T10:27:55;100634.97;;;20.62;61.27
48015;BME280;33780;51.034;7.120;2023-05-21T10:30:22;100626.44;;;20.65;61.06
48015;BME280;33780;51.034;7.120;2023-05-21T10:32:48;100629.19;;;20.71;62.19
48015;BME280;33780;51.034;7.120;2023-05-21T10:35:15;100631.31;;;20.76;60.69
48015;BME280;33780;51.034;7.120;2023-05-21T10:37:42;100623.38;;;20.81;61.65
48015;BME280;33780;51.034;7.120;2023-05-21T10:40:08;100625.31;;;20.87;61.09
48015;BME280;33780;51.034;7.120;2023-05-21T10:51:03;100609.09;;;21.07;59.82
48015;BME280;33780;51.034;7.120;2023-05-21T10:56:40;100608.06;;;21.15;59.71
48015;BME280;33780;51.034;7.120;2023-05-21T11:02:05;100605.38;;;21.21;60.33
48015;BME280;33780;51.034;7.120;2023-05-21T11:04:31;100599.13;;;21.27;60.22
48015;BME280;33780;51.034;7.120;2023-05-21T11:06:58;100604.59;;;21.34;60.19
48015;BME280;33780;51.034;7.120;2023-05-21T11:09:25;100607.34;;;21.40;59.56
48015;BME280;33780;51.034;7.120;2023-05-21T11:11:51;100597.31;;;21.48;60.02
48015;BME280;33780;51.034;7.120;2023-05-21T11:17:00;100592.94;;;21.60;59.41
48015;BME280;33780;51.034;7.120;2023-05-21T11:19:33;100597.34;;;21.67;59.45
48015;BME280;33780;51.034;7.120;2023-05-21T11:21:58;100595.28;;;21.76;60.05
48015;BME280;33780;51.034;7.120;2023-05-21T11:24:24;100586.88;;;21.84;59.81
48015;BME280;33780;51.034;7.120;2023-05-21T11:29:31;100587.31;;;22.01;58.54
48015;BME280;33780;51.034;7.120;2023-05-21T11:32:00;100580.19;;;22.07;58.64
48015;BME280;33780;51.034;7.120;2023-05-21T11:34:35;100577.91;;;22.17;58.62
48015;BME280;33780;51.034;7.120;2023-05-21T11:39:48;100579.16;;;22.21;57.80
48015;BME280;33780;51.034;7.120;2023-05-21T11:44:57;100575.38;;;22.28;57.71
48015;BME280;33780;51.034;7.120;2023-05-21T11:47:26;100573.69;;;22.34;57.48
48015;BME280;33780;51.034;7.120;2023-05-21T11:49:52;100578.09;;;22.35;56.16
48015;BME280;33780;51.034;7.120;2023-05-21T11:52:18;100568.25;;;22.34;56.62
48015;BME280;33780;51.034;7.120;2023-05-21T11:54:50;100574.09;;;22.38;56.73
48015;BME280;33780;51.034;7.120;2023-05-21T11:57:18;100576.59;;;22.39;56.67
48015;BME280;33780;51.034;7.120;2023-05-21T11:59:48;100564.22;;;22.43;57.27
48015;BME280;33780;51.034;7.120;2023-05-21T12:02:20;100567.78;;;22.50;57.56
48015;BME280;33780;51.034;7.120;2023-05-21T12:04:46;100564.81;;;22.58;57.17
48015;BME280;33780;51.034;7.120;2023-05-21T12:07:14;100566.09;;;22.63;56.25
48015;BME280;33780;51.034;7.120;2023-05-21T12:09:43;100565.44;;;22.67;55.65
48015;BME280;33780;51.034;7.120;2023-05-21T12:12:11;100561.22;;;22.71;56.29
48015;BME280;33780;51.034;7.120;2023-05-21T12:14:46;100558.69;;;22.76;56.42
48015;BME280;33780;51.034;7.120;2023-05-21T12:17:14;100553.63;;;22.80;55.33
48015;BME280;33780;51.034;7.120;2023-05-21T12:19:41;100553.66;;;22.86;56.07
48015;BME280;33780;51.034;7.120;2023-05-21T12:22:07;100554.44;;;22.94;56.38
48015;BME280;33780;51.034;7.120;2023-05-21T12:24:33;100555.06;;;23.02;56.47
48015;BME280;33780;51.034;7.120;2023-05-21T12:27:00;100553.72;;;23.11;56.57
48015;BME280;33780;51.034;7.120;2023-05-21T12:29:30;100548.66;;;23.15;55.36
48015;BME280;33780;51.034;7.120;2023-05-21T12:32:00;100549.31;;;23.17;55.34
48015;BME280;33780;51.034;7.120;2023-05-21T12:34:48;100547.81;;;23.21;55.62
48015;BME280;33780;51.034;7.120;2023-05-21T12:37:19;100544.63;;;23.24;55.39
48015;BME280;33780;51.034;7.120;2023-05-21T12:39:47;100550.66;;;23.33;55.82
48015;BME280;33780;51.034;7.120;2023-05-21T12:42:13;100552.97;;;23.36;55.81
48015;BME280;33780;51.034;7.120;2023-05-21T12:44:42;100544.97;;;23.41;53.92
48015;BME280;33780;51.034;7.120;2023-05-21T12:47:09;100539.06;;;23.44;54.80
48015;BME280;33780;51.034;7.120;2023-05-21T12:49:37;100542.78;;;23.49;54.73
48015;BME280;33780;51.034;7.120;2023-05-21T12:52:08;100541.50;;;23.59;55.01
48015;BME280;33780;51.034;7.120;2023-05-21T12:54:35;100538.94;;;23.64;54.52
48015;BME280;33780;51.034;7.120;2023-05-21T12:57:08;100533.63;;;23.69;54.53
48015;BME280;33780;51.034;7.120;2023-05-21T13:02:28;100542.78;;;23.81;54.11
48015;BME280;33780;51.034;7.120;2023-05-21T13:07:20;100536.38;;;23.94;54.02
48015;BME280;33780;51.034;7.120;2023-05-21T13:09:46;100532.16;;;23.98;54.05
48015;BME280;33780;51.034;7.120;2023-05-21T13:12:11;100529.34;;;24.04;53.69
48015;BME280;33780;51.034;7.120;2023-05-21T13:14:37;100522.75;;;24.12;53.60
48015;BME280;33780;51.034;7.120;2023-05-21T13:17:02;100512.81;;;24.18;53.49
48015;BME280;33780;51.034;7.120;2023-05-21T13:19:28;100519.25;;;24.23;53.53
48015;BME280;33780;51.034;7.120;2023-05-21T13:21:53;100524.06;;;24.28;53.04
48015;BME280;33780;51.034;7.120;2023-05-21T13:24:18;100521.34;;;24.28;52.35